| time (UTC) | temp F | wind direction | speed MPH | gust MPH | rain 1hr in | rain 24hr in | rain mn in | humidity % | barometer mb |
| 20260508034605 | 54 | 82 | 0.0 | 0.0 | 0.00 | 0.61 | 0.44 | 85 | 1013.6 |
| 20260508033035 | 54 | 82 | 0.0 | 0.0 | 0.00 | 0.61 | 0.44 | 85 | 1013.3 |
| 20260508031525 | 55 | 82 | 0.0 | 0.0 | 0.00 | 0.61 | 0.44 | 85 | 1013.1 |
| 20260508030022 | 55 | 82 | 0.0 | 0.0 | 0.00 | 0.61 | 0.44 | 85 | 1013.1 |
| 20260508024522 | 55 | 82 | 0.0 | 0.0 | 0.00 | 0.61 | 0.44 | 85 | 1012.9 |
| 20260508023034 | 54 | 82 | 0.0 | 0.0 | 0.00 | 0.61 | 0.44 | 85 | 1012.9 |
| 20260508021518 | 55 | 82 | 0.0 | 0.0 | 0.00 | 0.61 | 0.44 | 86 | 1012.7 |
| 20260508020015 | 55 | 82 | 0.0 | 0.0 | 0.00 | 0.61 | 0.44 | 86 | 1012.7 |
| 20260508014514 | 55 | 82 | 0.0 | 0.0 | 0.00 | 0.61 | 0.44 | 87 | 1012.6 |
| 20260508013012 | 55 | 82 | 0.0 | 0.0 | 0.00 | 0.61 | 0.44 | 89 | 1012.0 |
| 20260508011510 | 55 | 82 | 0.0 | 1.0 | 0.00 | 0.61 | 0.44 | 89 | 1011.5 |
| 20260508010013 | 55 | 82 | 0.0 | 0.0 | 0.00 | 0.61 | 0.44 | 88 | 1011.7 |
| 20260508004517 | 55 | 82 | 0.0 | 1.0 | 0.00 | 0.61 | 0.44 | 91 | 1011.9 |
| 20260508003007 | 55 | 82 | 0.0 | 1.0 | 0.00 | 0.61 | 0.44 | 90 | 1011.2 |
| 20260508001506 | 55 | 339 | 0.0 | 0.0 | 0.00 | 0.61 | 0.44 | 89 | 1011.4 |
| 20260508000004 | 55 | 339 | 0.0 | 1.0 | 0.00 | 0.61 | 0.44 | 89 | 1011.2 |
| 20260507234501 | 56 | 87 | 0.0 | 1.0 | 0.00 | 0.61 | 0.44 | 91 | 1010.7 |
| 20260507233002 | 56 | 76 | 0.0 | 2.0 | 0.00 | 0.61 | 0.44 | 93 | 1010.5 |
| 20260507231602 | 56 | 77 | 0.0 | 3.0 | 0.00 | 0.61 | 0.44 | 93 | 1010.2 |
| 20260507230102 | 56 | 54 | 0.0 | 2.0 | 0.01 | 0.61 | 0.44 | 93 | 1010.4 |
| 20260507224606 | 57 | 37 | 0.0 | 1.0 | 0.01 | 0.61 | 0.44 | 90 | 1010.4 |
| 20260507223100 | 56 | 27 | 0.0 | 1.0 | 0.01 | 0.61 | 0.44 | 89 | 1010.1 |
| 20260507221556 | 56 | 60 | 0.0 | 1.0 | 0.01 | 0.61 | 0.44 | 89 | 1010.0 |
| 20260507220056 | 56 | 51 | 0.0 | 3.0 | 0.00 | 0.60 | 0.43 | 90 | 1010.1 |
| 20260507214555 | 56 | 84 | 0.0 | 2.0 | 0.00 | 0.60 | 0.43 | 89 | 1010.3 |
| 20260507213054 | 56 | 81 | 0.0 | 2.0 | 0.00 | 0.60 | 0.43 | 92 | 1010.1 |
| 20260507211553 | 56 | 352 | 0.0 | 2.0 | 0.00 | 0.60 | 0.43 | 91 | 1010.1 |
| 20260507210115 | 56 | 39 | 0.0 | 3.0 | 0.00 | 0.60 | 0.43 | 91 | 1009.9 |
| 20260507204555 | 57 | 77 | 0.0 | 1.0 | 0.00 | 0.60 | 0.43 | 89 | 1009.4 |
| 20260507203046 | 57 | 306 | 0.0 | 3.0 | 0.00 | 0.60 | 0.43 | 89 | 1009.6 |
| 20260507201544 | 58 | 306 | 0.0 | 2.0 | 0.00 | 0.60 | 0.43 | 89 | 1009.3 |
| 20260507200055 | 58 | 257 | 0.0 | 1.0 | 0.00 | 0.64 | 0.43 | 89 | 1009.3 |
| 20260507194541 | 58 | 74 | 0.0 | 1.0 | 0.00 | 0.64 | 0.43 | 89 | 1009.5 |
| 20260507193104 | 58 | 27 | 0.0 | 2.0 | 0.00 | 0.64 | 0.43 | 85 | 1009.3 |
| 20260507191547 | 58 | 46 | 0.0 | 2.0 | 0.01 | 0.64 | 0.43 | 85 | 1009.3 |
| 20260507190041 | 58 | 12 | 0.0 | 1.0 | 0.01 | 0.80 | 0.43 | 85 | 1009.7 |
| 20260507184507 | 59 | 329 | 0.0 | 2.0 | 0.02 | 0.80 | 0.43 | 86 | 1008.9 |
| 20260507183006 | 59 | 21 | 0.0 | 2.0 | 0.04 | 0.80 | 0.43 | 87 | 1009.4 |
| 20260507181600 | 60 | 309 | 0.0 | 1.0 | 0.03 | 0.79 | 0.42 | 87 | 1008.9 |
| 20260507180059 | 60 | 81 | 0.0 | 2.0 | 0.03 | 0.79 | 0.42 | 93 | 1008.8 |
| 20260507174600 | 62 | 302 | 0.0 | 4.0 | 0.02 | 0.78 | 0.41 | 97 | 1009.2 |
| 20260507173121 | 68 | 35 | 1.0 | 2.0 | 0.00 | 0.76 | 0.39 | 87 | 1009.1 |
| 20260507171548 | 69 | 222 | 0.0 | 0.0 | 0.00 | 0.76 | 0.39 | 86 | 1008.2 |
| 20260507170049 | 70 | 221 | 0.0 | 1.0 | 0.01 | 0.76 | 0.39 | 91 | 1007.9 |
| 20260507164548 | 70 | 253 | 0.0 | 0.0 | 0.02 | 0.76 | 0.39 | 85 | 1008.2 |
| 20260507163039 | 69 | 252 | 0.0 | 2.0 | 0.02 | 0.76 | 0.39 | 87 | 1008.6 |
| 20260507161535 | 69 | 289 | 0.0 | 2.0 | 0.02 | 0.76 | 0.39 | 80 | 1009.4 |
| 20260507160056 | 69 | 243 | 0.0 | 1.0 | 0.02 | 0.75 | 0.38 | 81 | 1009.8 |
| 20260507154535 | 69 | 298 | 0.0 | 2.0 | 0.02 | 0.74 | 0.37 | 82 | 1009.7 |
| 20260507153035 | 69 | 208 | 0.0 | 2.0 | 0.03 | 0.74 | 0.37 | 81 | 1009.1 |
| 20260507151528 | 68 | 221 | 0.0 | 2.0 | 0.05 | 0.74 | 0.37 | 80 | 1009.3 |
| 20260507150027 | 68 | 315 | 0.0 | 2.0 | 0.05 | 0.73 | 0.36 | 80 | 1009.6 |
| 20260507144541 | 68 | 272 | 0.0 | 3.0 | 0.05 | 0.72 | 0.35 | 80 | 1009.7 |
| 20260507143024 | 68 | 349 | 0.0 | 3.0 | 0.04 | 0.70 | 0.33 | 80 | 1009.8 |
| 20260507141526 | 67 | 304 | 0.0 | 1.0 | 0.07 | 0.69 | 0.32 | 80 | 1009.7 |
| 20260507140019 | 67 | 283 | 0.0 | 1.0 | 0.12 | 0.68 | 0.31 | 80 | 1009.8 |
| 20260507134520 | 67 | 294 | 0.0 | 1.0 | 0.14 | 0.67 | 0.30 | 80 | 1010.1 |
| 20260507133018 | 67 | 281 | 0.0 | 1.0 | 0.13 | 0.66 | 0.28 | 80 | 1010.3 |
| 20260507131514 | 67 | 271 | 0.0 | 2.0 | 0.10 | 0.62 | 0.25 | 80 | 1010.2 |
| 20260507130026 | 67 | 284 | 0.0 | 1.0 | 0.05 | 0.56 | 0.19 | 80 | 1010.1 |
| 20260507124516 | 67 | 314 | 0.0 | 2.0 | 0.02 | 0.53 | 0.16 | 80 | 1010.2 |
| 20260507123011 | 67 | 243 | 0.0 | 1.0 | 0.02 | 0.53 | 0.16 | 81 | 1010.2 |
| 20260507121610 | 67 | 252 | 0.0 | 2.0 | 0.01 | 0.52 | 0.15 | 80 | 1010.1 |
| 20260507120059 | 67 | 293 | 0.0 | 1.0 | 0.00 | 0.51 | 0.14 | 81 | 1010.2 |
| 20260507114600 | 66 | 283 | 0.0 | 2.0 | 0.00 | 0.51 | 0.14 | 81 | 1010.3 |
| 20260507113055 | 66 | 207 | 0.0 | 2.0 | 0.01 | 0.51 | 0.14 | 81 | 1010.5 |
| 20260507110053 | 66 | 288 | 0.0 | 2.0 | 0.02 | 0.51 | 0.14 | 81 | 1010.6 |
| 20260507104554 | 66 | 141 | 0.0 | 2.0 | 0.03 | 0.51 | 0.14 | 81 | 1010.2 |
| 20260507103050 | 66 | 262 | 0.0 | 2.0 | 0.02 | 0.50 | 0.13 | 81 | 1010.2 |
| 20260507100050 | 66 | 290 | 0.0 | 2.0 | 0.03 | 0.50 | 0.13 | 81 | 1010.2 |
| 20260507094550 | 65 | 216 | 0.0 | 1.0 | 0.01 | 0.48 | 0.11 | 81 | 1010.2 |
| 20260507093051 | 65 | 307 | 0.0 | 1.0 | 0.02 | 0.48 | 0.11 | 81 | 1010.3 |
| 20260507090110 | 65 | 196 | 0.0 | 0.0 | 0.02 | 0.47 | 0.10 | 81 | 1010.3 |
| 20260507084555 | 65 | 196 | 0.0 | 0.0 | 0.05 | 0.47 | 0.10 | 81 | 1010.4 |
| 20260507083053 | 65 | 196 | 0.0 | 0.0 | 0.06 | 0.46 | 0.09 | 81 | 1010.6 |
| 20260507081552 | 65 | 193 | 0.0 | 0.0 | 0.05 | 0.45 | 0.08 | 81 | 1011.0 |
| 20260507080049 | 65 | 219 | 0.0 | 2.0 | 0.07 | 0.45 | 0.08 | 81 | 1011.2 |
| 20260507074555 | 65 | 271 | 0.0 | 0.0 | 0.04 | 0.42 | 0.05 | 81 | 1010.7 |
| 20260507073047 | 65 | 274 | 0.0 | 1.0 | 0.02 | 0.40 | 0.03 | 81 | 1011.5 |
| 20260507071547 | 65 | 295 | 0.0 | 0.0 | 0.02 | 0.40 | 0.03 | 81 | 1011.6 |
| 20260507070048 | 65 | 321 | 0.0 | 0.0 | 0.00 | 0.38 | 0.01 | 81 | 1011.5 |
| 20260507064557 | 65 | 215 | 0.0 | 0.0 | 0.00 | 0.38 | 0.01 | 81 | 1011.7 |
| 20260507063044 | 65 | 214 | 0.0 | 0.0 | 0.00 | 0.38 | 0.01 | 81 | 1011.7 |
| 20260507061542 | 65 | 295 | 0.0 | 0.0 | 0.00 | 0.38 | 0.01 | 81 | 1012.2 |
| 20260507060037 | 65 | 306 | 0.0 | 0.0 | 0.01 | 0.38 | 0.01 | 81 | 1012.2 |
| 20260507054540 | 65 | 306 | 0.0 | 0.0 | 0.06 | 0.38 | 0.01 | 82 | 1012.4 |
| 20260507053033 | 66 | 300 | 0.0 | 0.0 | 0.10 | 0.38 | 0.01 | 82 | 1012.1 |
| 20260507051530 | 66 | 345 | 0.0 | 1.0 | 0.12 | 0.38 | 0.01 | 83 | 1011.3 |
| 20260507050034 | 66 | 81 | 0.0 | 3.0 | 0.14 | 0.37 | 0.37 | 85 | 1011.8 |
| 20260507044526 | 66 | 229 | 0.0 | 1.0 | 0.09 | 0.31 | 0.31 | 84 | 1013.3 |
| 20260507043025 | 67 | 103 | 0.0 | 3.0 | 0.06 | 0.28 | 0.28 | 86 | 1013.8 |
| 20260507041539 | 68 | 259 | 0.0 | 3.0 | 0.06 | 0.26 | 0.26 | 91 | 1013.5 |
| 20260507040022 | 69 | 300 | 0.0 | 4.0 | 0.03 | 0.23 | 0.23 | 96 | 1013.5 |